Time;durP1;ratioP1;P1;durP2;ratioP2;P2;SDS_P1;SDS_P2;PMS_P1;PMS_P2;Temp;Humidity;BMP_temperature;BMP_pressure;BME280_temperature;BME280_humidity;BME280_pressure;Samples;Min_cycle;Max_cycle;Signal;HPM_P1;HPM_P2
2022/12/26 00:00:33;;;;;;;84.07;28.52;;;;;;;;;;4908536;28;20184;-68
2022/12/26 00:02:58;;;;;;;79.70;29.02;;;;;;;;;;4924825;28;20046;-69
2022/12/26 00:05:26;;;;;;;77.43;29.48;;;;;;;;;;4941651;28;20515;-69
2022/12/26 00:07:51;;;;;;;84.35;29.98;;;;;;;;;;4924073;28;20042;-69
2022/12/26 00:10:16;;;;;;;76.95;28.90;;;;;;;;;;4941163;28;20058;-68
2022/12/26 00:12:42;;;;;;;74.05;27.60;;;;;;;;;;4941462;28;20039;-69
2022/12/26 00:15:07;;;;;;;78.45;29.08;;;;;;;;;;4941135;28;20890;-68
2022/12/26 00:17:32;;;;;;;78.75;27.42;;;;;;;;;;4941728;28;20042;-69
2022/12/26 00:20:02;;;;;;;79.30;28.30;;;;;;;;;;4941340;28;20042;-68
2022/12/26 00:22:27;;;;;;;70.43;27.08;;;;;;;;;;4923735;28;20190;-69
2022/12/26 00:24:57;;;;;;;71.18;26.88;;;;;;;;;;4924492;28;20046;-68
2022/12/26 00:27:22;;;;;;;65.63;26.67;;;;;;;;;;4923922;28;20446;-69
2022/12/26 00:29:48;;;;;;;71.15;26.23;;;;;;;;;;4941140;28;20483;-68
2022/12/26 00:32:15;;;;;;;73.93;27.17;;;;;;;;;;4940826;28;20043;-69
2022/12/26 00:34:40;;;;;;;69.25;26.63;;;;;;;;;;4941201;28;20621;-69
2022/12/26 00:37:11;;;;;;;62.72;25.65;;;;;;;;;;4923685;28;20031;-69
2022/12/26 00:39:36;;;;;;;64.05;24.98;;;;;;;;;;4940751;28;20035;-69
2022/12/26 00:42:02;;;;;;;62.65;24.80;;;;;;;;;;4941354;28;20176;-69
2022/12/26 00:44:30;;;;;;;63.15;24.20;;;;;;;;;;4940601;28;20146;-68
2022/12/26 00:46:55;;;;;;;58.42;23.95;;;;;;;;;;4940281;28;20289;-69
2022/12/26 00:49:20;;;;;;;61.90;24.50;;;;;;;;;;4940415;28;20143;-68
2022/12/26 00:51:45;;;;;;;63.33;24.63;;;;;;;;;;4941130;28;20044;-69
2022/12/26 00:54:11;;;;;;;61.83;25.33;;;;;;;;;;4940299;28;20427;-69
2022/12/26 00:56:36;;;;;;;60.78;23.85;;;;;;;;;;4940898;28;20057;-69
2022/12/26 00:59:01;;;;;;;63.38;25.60;;;;;;;;;;4940306;28;20297;-71
2022/12/26 01:01:29;;;;;;;52.40;22.63;;;;;;;;;;4940659;28;20031;-69
2022/12/26 01:03:56;;;;;;;59.92;22.38;;;;;;;;;;4940634;28;20334;-70
2022/12/26 01:06:21;;;;;;;53.78;20.50;;;;;;;;;;4940809;28;20172;-69
2022/12/26 01:08:46;;;;;;;46.30;18.30;;;;;;;;;;4923008;28;20030;-70
2022/12/26 01:11:38;;;;;;;40.75;17.85;;;;;;;;;;4922853;28;20038;-70
2022/12/26 01:14:00;;;;;;;45.65;18.25;;;;;;;;;;4940707;28;20097;-70
2022/12/26 01:16:25;;;;;;;43.78;18.15;;;;;;;;;;4939863;28;20035;-71
2022/12/26 01:18:53;;;;;;;41.50;19.58;;;;;;;;;;4940596;28;20031;-71
2022/12/26 01:21:18;;;;;;;50.13;19.20;;;;;;;;;;4939967;28;20078;-70
2022/12/26 01:23:43;;;;;;;52.22;20.25;;;;;;;;;;4940568;28;20095;-72
2022/12/26 01:26:11;;;;;;;40.95;17.10;;;;;;;;;;4921819;28;20030;-71
2022/12/26 01:28:36;;;;;;;40.05;17.30;;;;;;;;;;4923186;28;20062;-71
2022/12/26 01:31:02;;;;;;;38.75;16.42;;;;;;;;;;4939390;28;20039;-70
2022/12/26 01:33:30;;;;;;;39.15;16.40;;;;;;;;;;4907150;28;20049;-70
2022/12/26 01:35:55;;;;;;;49.15;19.90;;;;;;;;;;4940083;28;20449;-68
2022/12/26 01:38:20;;;;;;;48.33;20.58;;;;;;;;;;4940396;28;20125;-69
2022/12/26 01:41:15;;;;;;;50.60;19.00;;;;;;;;;;4939324;28;20034;-68
2022/12/26 01:43:46;;;;;;;44.67;18.00;;;;;;;;;;4939375;28;20130;-70
2022/12/26 01:46:12;;;;;;;39.97;17.92;;;;;;;;;;4940016;28;20038;-69
2022/12/26 01:48:37;;;;;;;43.17;18.48;;;;;;;;;;4940357;28;20050;-69
2022/12/26 01:51:04;;;;;;;43.70;19.23;;;;;;;;;;4922475;28;20532;-70
2022/12/26 01:53:38;;;;;;;50.30;19.98;;;;;;;;;;4939271;28;20035;-70
2022/12/26 01:56:10;;;;;;;48.58;19.73;;;;;;;;;;4922209;28;20381;-70
2022/12/26 01:58:38;;;;;;;45.63;19.90;;;;;;;;;;4939352;28;20038;-72
2022/12/26 02:01:05;;;;;;;45.03;21.27;;;;;;;;;;4939420;28;20031;-71
2022/12/26 02:06:15;;;;;;;51.05;21.80;;;;;;;;;;4939610;28;20039;-72
2022/12/26 02:08:42;;;;;;;52.40;26.05;;;;;;;;;;4939242;28;20042;-72
2022/12/26 02:11:18;;;;;;;57.50;24.70;;;;;;;;;;4939859;28;20119;-72
2022/12/26 02:13:48;;;;;;;48.17;20.75;;;;;;;;;;4939124;28;20181;-76
2022/12/26 02:16:17;;;;;;;48.47;21.13;;;;;;;;;;4906186;28;20945;-72
2022/12/26 02:18:44;;;;;;;40.88;19.00;;;;;;;;;;4939938;28;20273;-72
2022/12/26 02:21:17;;;;;;;44.60;18.38;;;;;;;;;;4922373;28;20031;-73
2022/12/26 02:24:01;;;;;;;51.97;17.48;;;;;;;;;;4939314;28;20049;-72
2022/12/26 02:26:41;;;;;;;48.05;18.40;;;;;;;;;;4939261;28;20345;-73
2022/12/26 02:29:06;;;;;;;55.50;19.60;;;;;;;;;;4938822;28;20046;-73
2022/12/26 02:31:50;;;;;;;46.08;17.95;;;;;;;;;;4939533;28;20063;-73
2022/12/26 02:34:21;;;;;;;48.60;18.40;;;;;;;;;;4938838;28;20418;-72
2022/12/26 02:36:50;;;;;;;48.35;16.10;;;;;;;;;;4939080;28;20035;-72
2022/12/26 02:39:34;;;;;;;37.30;16.02;;;;;;;;;;4938780;28;20041;-74
2022/12/26 02:42:21;;;;;;;37.80;16.80;;;;;;;;;;4938898;28;20042;-74
2022/12/26 02:47:37;;;;;;;42.05;16.88;;;;;;;;;;4938800;28;20035;-74
2022/12/26 03:13:35;;;;;;;45.65;19.00;;;;;;;;;;4942622;28;20046;-75
2022/12/26 03:18:56;;;;;;;50.75;20.10;;;;;;;;;;4941607;28;20501;-73
2022/12/26 03:21:23;;;;;;;54.42;22.23;;;;;;;;;;5007740;28;20046;-72
2022/12/26 03:23:50;;;;;;;59.45;23.05;;;;;;;;;;4942220;28;20034;-74
2022/12/26 03:26:40;;;;;;;52.05;20.88;;;;;;;;;;4924025;28;20378;-73
2022/12/26 03:32:12;;;;;;;53.28;19.33;;;;;;;;;;4923855;28;20042;-73
2022/12/26 03:34:41;;;;;;;48.28;18.02;;;;;;;;;;4942285;28;20038;-73
2022/12/26 03:37:25;;;;;;;56.17;18.70;;;;;;;;;;4941746;28;20031;-72
2022/12/26 04:19:24;;;;;;;27.38;7.40;;;;;;;;;;4942154;28;20054;-74
2022/12/26 04:44:36;;;;;;;24.38;6.00;;;;;;;;;;4942007;28;20027;-74
2022/12/26 04:47:02;;;;;;;23.65;5.97;;;;;;;;;;4923464;28;20401;-74
2022/12/26 04:52:13;;;;;;;28.77;6.05;;;;;;;;;;4940826;28;20548;-73
2022/12/26 04:54:39;;;;;;;26.23;6.75;;;;;;;;;;4924343;28;20576;-74
2022/12/26 04:57:04;;;;;;;27.95;5.80;;;;;;;;;;4942670;28;20027;-73
2022/12/26 04:59:30;;;;;;;23.13;5.50;;;;;;;;;;4908840;28;20031;-73
2022/12/26 05:10:16;;;;;;;25.15;5.65;;;;;;;;;;4941075;28;20332;-75
2022/12/26 05:12:43;;;;;;;20.23;5.40;;;;;;;;;;4940540;28;20366;-72
2022/12/26 05:15:09;;;;;;;20.52;5.97;;;;;;;;;;4922701;28;20031;-73
2022/12/26 05:28:43;;;;;;;19.45;4.03;;;;;;;;;;4939897;28;20147;-74
2022/12/26 05:31:13;;;;;;;19.45;4.53;;;;;;;;;;4923321;28;20034;-74
2022/12/26 05:36:27;;;;;;;14.52;3.45;;;;;;;;;;4940153;28;20268;-73
2022/12/26 05:38:54;;;;;;;22.30;4.40;;;;;;;;;;4940207;28;20039;-72
2022/12/26 05:41:20;;;;;;;28.10;4.82;;;;;;;;;;4940637;28;20038;-73
2022/12/26 05:43:45;;;;;;;21.92;4.13;;;;;;;;;;4943344;28;20058;-74
2022/12/26 05:46:11;;;;;;;19.75;4.78;;;;;;;;;;4949587;28;20200;-74
2022/12/26 05:48:36;;;;;;;18.70;4.60;;;;;;;;;;4944885;28;20053;-73
2022/12/26 05:51:03;;;;;;;18.05;4.40;;;;;;;;;;4945838;28;20433;-72
2022/12/26 05:53:31;;;;;;;22.00;4.60;;;;;;;;;;4928465;28;20234;-74
2022/12/26 05:56:06;;;;;;;18.00;3.90;;;;;;;;;;4943970;28;20136;-74
2022/12/26 05:58:32;;;;;;;19.50;4.50;;;;;;;;;;4947293;28;20235;-75
2022/12/26 06:01:05;;;;;;;20.70;4.60;;;;;;;;;;4946984;28;20421;-73
2022/12/26 06:03:30;;;;;;;19.45;4.18;;;;;;;;;;4927378;28;20461;-73
2022/12/26 06:05:58;;;;;;;22.60;4.78;;;;;;;;;;4930375;28;20114;-76
2022/12/26 06:08:27;;;;;;;19.77;3.92;;;;;;;;;;4926681;28;20323;-74
2022/12/26 06:10:52;;;;;;;19.35;4.15;;;;;;;;;;4940363;28;20139;-72
2022/12/26 06:13:20;;;;;;;18.52;4.10;;;;;;;;;;4952104;28;20320;-74
2022/12/26 06:15:45;;;;;;;19.98;4.30;;;;;;;;;;4928064;28;20540;-73
2022/12/26 06:18:11;;;;;;;23.27;3.92;;;;;;;;;;4944639;28;20045;-73
2022/12/26 06:20:39;;;;;;;18.48;3.92;;;;;;;;;;4945655;28;20042;-74
2022/12/26 06:23:07;;;;;;;19.37;4.93;;;;;;;;;;4923185;28;20049;-73
2022/12/26 06:25:32;;;;;;;18.98;4.82;;;;;;;;;;4928214;28;20271;-73
2022/12/26 06:27:58;;;;;;;18.65;4.40;;;;;;;;;;4945184;28;20143;-75
2022/12/26 06:30:23;;;;;;;23.52;4.50;;;;;;;;;;4946208;28;20053;-74
2022/12/26 06:32:48;;;;;;;19.23;4.25;;;;;;;;;;4945450;28;20035;-73
2022/12/26 06:35:14;;;;;;;19.88;4.20;;;;;;;;;;4943594;28;20081;-72
2022/12/26 06:37:44;;;;;;;20.63;4.40;;;;;;;;;;4942874;28;20112;-74
2022/12/26 06:40:12;;;;;;;20.08;4.35;;;;;;;;;;4952083;28;20623;-74
2022/12/26 06:42:40;;;;;;;17.05;4.05;;;;;;;;;;4931104;28;20038;-74
2022/12/26 06:45:05;;;;;;;23.55;4.78;;;;;;;;;;4947011;28;20038;-72
2022/12/26 06:47:30;;;;;;;21.08;4.90;;;;;;;;;;4947466;28;20038;-73
2022/12/26 06:49:56;;;;;;;28.63;4.53;;;;;;;;;;4945154;28;20149;-73
2022/12/26 06:52:21;;;;;;;19.27;4.88;;;;;;;;;;4928054;28;20035;-74
2022/12/26 06:54:46;;;;;;;20.27;4.28;;;;;;;;;;4899787;28;20526;-73
2022/12/26 06:57:14;;;;;;;18.42;4.32;;;;;;;;;;4946668;28;20031;-72
2022/12/26 06:59:39;;;;;;;19.63;4.20;;;;;;;;;;4913198;28;20497;-73
2022/12/26 07:02:05;;;;;;;28.63;4.85;;;;;;;;;;4944977;28;20153;-73
2022/12/26 07:04:30;;;;;;;23.25;5.13;;;;;;;;;;4943462;28;20485;-72
2022/12/26 07:06:55;;;;;;;24.83;4.30;;;;;;;;;;4952794;28;20039;-72
2022/12/26 07:09:23;;;;;;;18.20;4.25;;;;;;;;;;4953198;28;20051;-72
2022/12/26 07:11:48;;;;;;;27.70;4.40;;;;;;;;;;4946525;28;20669;-75
2022/12/26 07:14:14;;;;;;;21.08;4.40;;;;;;;;;;4945566;28;20042;-73
2022/12/26 07:16:41;;;;;;;21.58;4.28;;;;;;;;;;4943611;28;20046;-74
2022/12/26 07:19:08;;;;;;;20.98;4.65;;;;;;;;;;4942052;28;20042;-73
2022/12/26 07:21:36;;;;;;;19.10;4.40;;;;;;;;;;4956215;28;21014;-73
2022/12/26 07:24:01;;;;;;;25.75;4.68;;;;;;;;;;4945541;28;20507;-73
2022/12/26 07:26:29;;;;;;;24.48;4.82;;;;;;;;;;4946356;28;20150;-72
2022/12/26 07:28:55;;;;;;;28.05;5.05;;;;;;;;;;4946691;28;20035;-74
2022/12/26 07:31:23;;;;;;;27.05;4.28;;;;;;;;;;4944282;28;20943;-71
2022/12/26 07:33:51;;;;;;;32.92;5.13;;;;;;;;;;4929860;28;20055;-73
2022/12/26 07:36:17;;;;;;;24.40;4.97;;;;;;;;;;4949879;28;20035;-73
2022/12/26 07:38:42;;;;;;;26.85;5.55;;;;;;;;;;4951232;28;20034;-72
2022/12/26 07:43:51;;;;;;;41.03;6.13;;;;;;;;;;4945372;28;20031;-73
2022/12/26 07:46:17;;;;;;;43.67;7.90;;;;;;;;;;4945202;28;20188;-76
2022/12/26 07:48:42;;;;;;;31.25;6.45;;;;;;;;;;4945856;28;20272;-74
2022/12/26 07:51:08;;;;;;;39.65;7.22;;;;;;;;;;4946322;28;20166;-76
2022/12/26 07:53:33;;;;;;;41.92;6.53;;;;;;;;;;4948866;28;20062;-74
2022/12/26 07:55:58;;;;;;;46.38;7.15;;;;;;;;;;4914541;28;20481;-76
2022/12/26 07:58:24;;;;;;;47.15;7.13;;;;;;;;;;4948371;28;20598;-75
2022/12/26 08:00:50;;;;;;;48.08;7.00;;;;;;;;;;4947395;28;20108;-76
2022/12/26 08:03:17;;;;;;;62.55;6.43;;;;;;;;;;4945797;28;20043;-75
2022/12/26 08:05:45;;;;;;;45.63;6.80;;;;;;;;;;4926144;28;20031;-73
2022/12/26 08:08:11;;;;;;;52.05;8.20;;;;;;;;;;4949029;28;20034;-74
2022/12/26 08:10:36;;;;;;;63.55;9.25;;;;;;;;;;4954953;28;20430;-74
2022/12/26 08:13:02;;;;;;;65.80;9.93;;;;;;;;;;4949030;28;20038;-74
2022/12/26 08:15:27;;;;;;;58.42;8.23;;;;;;;;;;4947246;28;20565;-74
2022/12/26 08:17:53;;;;;;;40.13;6.97;;;;;;;;;;4946356;28;20073;-73
2022/12/26 08:20:22;;;;;;;44.10;7.72;;;;;;;;;;4944838;28;20038;-74
2022/12/26 08:22:47;;;;;;;38.80;5.97;;;;;;;;;;4925259;28;20034;-73
2022/12/26 08:25:12;;;;;;;46.00;6.13;;;;;;;;;;4926619;28;20487;-74
2022/12/26 08:27:40;;;;;;;33.92;5.43;;;;;;;;;;4944439;28;20042;-73
2022/12/26 08:30:06;;;;;;;33.28;5.03;;;;;;;;;;4946673;28;20043;-75
2022/12/26 08:32:31;;;;;;;34.72;4.95;;;;;;;;;;4943277;28;20047;-76
2022/12/26 08:34:56;;;;;;;33.72;5.10;;;;;;;;;;4944275;28;20058;-73
2022/12/26 08:37:25;;;;;;;31.85;5.30;;;;;;;;;;4943825;28;20110;-74
2022/12/26 08:39:53;;;;;;;32.42;5.13;;;;;;;;;;4942957;28;20328;-75
2022/12/26 08:42:21;;;;;;;37.92;5.70;;;;;;;;;;4942042;28;20045;-73
2022/12/26 08:44:47;;;;;;;30.70;5.20;;;;;;;;;;4943176;28;20042;-75
2022/12/26 08:47:14;;;;;;;30.02;4.65;;;;;;;;;;4944505;28;20046;-74
2022/12/26 08:49:40;;;;;;;40.30;4.65;;;;;;;;;;4942015;28;20485;-78
2022/12/26 08:52:06;;;;;;;32.30;4.85;;;;;;;;;;4929924;28;20191;-75
2022/12/26 08:54:32;;;;;;;29.60;5.75;;;;;;;;;;4947275;28;20381;-74
2022/12/26 08:56:58;;;;;;;27.70;4.05;;;;;;;;;;4950690;28;20443;-73
2022/12/26 08:59:23;;;;;;;27.48;4.05;;;;;;;;;;4951384;28;20043;-73
2022/12/26 09:01:49;;;;;;;26.30;3.75;;;;;;;;;;4932769;28;20045;-74
2022/12/26 09:04:14;;;;;;;27.30;3.55;;;;;;;;;;4912577;28;20210;-72
2022/12/26 09:06:40;;;;;;;28.60;4.53;;;;;;;;;;4945467;28;20122;-73
2022/12/26 09:09:10;;;;;;;29.30;4.32;;;;;;;;;;4945963;28;20030;-74
2022/12/26 09:11:35;;;;;;;24.77;2.90;;;;;;;;;;4950560;28;20046;-73
2022/12/26 09:14:03;;;;;;;23.55;3.38;;;;;;;;;;4954450;28;20061;-73
2022/12/26 09:16:37;;;;;;;39.92;4.85;;;;;;;;;;4947565;28;20550;-73
2022/12/26 09:19:03;;;;;;;26.48;4.38;;;;;;;;;;4929968;28;20031;-73
2022/12/26 09:21:29;;;;;;;21.85;3.30;;;;;;;;;;4954017;28;20023;-74
2022/12/26 09:23:59;;;;;;;33.35;3.67;;;;;;;;;;4934870;28;20362;-74
2022/12/26 09:26:24;;;;;;;26.52;3.28;;;;;;;;;;4944794;28;20026;-75
2022/12/26 09:28:52;;;;;;;30.25;4.68;;;;;;;;;;4947005;28;20028;-72
2022/12/26 09:31:19;;;;;;;29.02;4.18;;;;;;;;;;4927495;28;20081;-73
2022/12/26 09:33:46;;;;;;;27.63;3.40;;;;;;;;;;4951363;28;21855;-72
2022/12/26 09:36:12;;;;;;;29.52;4.72;;;;;;;;;;4951282;28;20034;-72
2022/12/26 09:38:38;;;;;;;28.27;4.93;;;;;;;;;;4950339;28;20042;-72
2022/12/26 09:41:06;;;;;;;33.65;4.22;;;;;;;;;;4948675;28;20492;-73
2022/12/26 09:43:46;;;;;;;31.98;4.38;;;;;;;;;;4948047;28;20108;-73
2022/12/26 09:46:44;;;;;;;23.80;3.40;;;;;;;;;;4948280;28;20512;-72
2022/12/26 09:49:16;;;;;;;25.80;4.20;;;;;;;;;;4957473;28;20045;-74
2022/12/26 09:51:43;;;;;;;29.15;3.90;;;;;;;;;;4946886;28;20031;-74
2022/12/26 09:54:13;;;;;;;34.10;5.25;;;;;;;;;;4949348;28;20127;-73
2022/12/26 09:56:39;;;;;;;27.13;4.47;;;;;;;;;;4948763;28;20042;-73
2022/12/26 09:59:16;;;;;;;25.13;3.63;;;;;;;;;;4949373;28;20419;-73
2022/12/26 10:01:42;;;;;;;26.42;2.97;;;;;;;;;;4947412;28;20046;-73
2022/12/26 10:04:15;;;;;;;25.40;3.67;;;;;;;;;;4929815;28;20042;-72
2022/12/26 10:06:43;;;;;;;25.30;3.60;;;;;;;;;;4932217;28;20156;-73
2022/12/26 10:09:23;;;;;;;27.08;3.58;;;;;;;;;;4947477;28;20062;-73
2022/12/26 10:12:03;;;;;;;32.65;4.38;;;;;;;;;;4945958;28;20111;-72
2022/12/26 10:14:34;;;;;;;35.78;5.18;;;;;;;;;;4945021;28;20433;-73
2022/12/26 10:17:07;;;;;;;20.52;2.65;;;;;;;;;;4944620;28;20027;-72
2022/12/26 10:19:35;;;;;;;22.10;3.08;;;;;;;;;;4944995;28;20155;-73
2022/12/26 10:22:06;;;;;;;20.15;2.92;;;;;;;;;;4944341;28;20058;-73
2022/12/26 10:24:36;;;;;;;26.48;3.70;;;;;;;;;;4943947;28;20029;-72
2022/12/26 10:27:03;;;;;;;17.90;2.78;;;;;;;;;;4943495;28;20110;-73
2022/12/26 10:29:34;;;;;;;17.85;2.80;;;;;;;;;;4945566;28;20497;-73
2022/12/26 10:32:10;;;;;;;21.67;2.75;;;;;;;;;;4948613;28;20445;-72
2022/12/26 10:34:38;;;;;;;24.45;2.83;;;;;;;;;;4949037;28;20058;-75
2022/12/26 10:37:22;;;;;;;22.17;2.30;;;;;;;;;;4951864;28;20057;-74
2022/12/26 10:40:07;;;;;;;21.83;3.25;;;;;;;;;;4952324;28;20031;-74
2022/12/26 10:42:34;;;;;;;21.58;3.15;;;;;;;;;;4950853;28;20787;-71
2022/12/26 10:45:00;;;;;;;26.25;4.03;;;;;;;;;;4948028;28;20750;-73
2022/12/26 10:47:30;;;;;;;33.60;3.85;;;;;;;;;;4948987;28;20100;-73
2022/12/26 10:49:58;;;;;;;28.23;4.35;;;;;;;;;;4949682;28;20045;-74
2022/12/26 10:52:26;;;;;;;31.17;3.85;;;;;;;;;;4952772;28;20492;-72
2022/12/26 10:54:56;;;;;;;38.28;4.22;;;;;;;;;;4952755;28;20100;-74
2022/12/26 10:57:22;;;;;;;19.10;3.60;;;;;;;;;;4951054;28;20031;-73
2022/12/26 10:59:50;;;;;;;30.15;3.80;;;;;;;;;;4954300;28;20034;-75
2022/12/26 11:02:25;;;;;;;32.45;4.55;;;;;;;;;;4957275;28;20035;-73
2022/12/26 11:05:10;;;;;;;27.83;4.50;;;;;;;;;;4955633;28;20050;-75
2022/12/26 11:07:36;;;;;;;24.38;4.07;;;;;;;;;;4952062;28;20034;-73
2022/12/26 11:10:04;;;;;;;25.10;3.45;;;;;;;;;;4923864;29;20048;-75
2022/12/26 11:12:40;;;;;;;26.95;3.40;;;;;;;;;;4926065;28;20042;-74
2022/12/26 11:15:19;;;;;;;25.35;3.30;;;;;;;;;;4932319;28;20047;-74
2022/12/26 11:17:46;;;;;;;23.70;3.33;;;;;;;;;;4933754;28;20525;-74
2022/12/26 11:20:14;;;;;;;40.65;4.70;;;;;;;;;;4938067;28;20055;-74
2022/12/26 11:22:40;;;;;;;22.25;3.60;;;;;;;;;;4932686;29;20039;-74
2022/12/26 11:25:08;;;;;;;19.38;3.03;;;;;;;;;;4932072;29;20039;-76
2022/12/26 11:27:33;;;;;;;25.05;3.78;;;;;;;;;;4931259;28;20067;-74
2022/12/26 11:30:18;;;;;;;17.23;3.20;;;;;;;;;;4931221;28;20047;-73
2022/12/26 11:32:47;;;;;;;25.38;3.35;;;;;;;;;;4929423;28;20078;-73
2022/12/26 11:35:21;;;;;;;25.58;3.63;;;;;;;;;;4929505;28;20036;-73
2022/12/26 11:37:50;;;;;;;30.88;4.32;;;;;;;;;;4932871;28;20409;-74
2022/12/26 11:40:20;;;;;;;17.85;3.00;;;;;;;;;;4922054;28;20097;-73
2022/12/26 11:42:52;;;;;;;31.55;4.03;;;;;;;;;;4893399;29;20071;-72
2022/12/26 11:45:20;;;;;;;18.65;3.10;;;;;;;;;;4912367;28;20036;-73
2022/12/26 11:47:46;;;;;;;28.38;3.20;;;;;;;;;;4929016;28;20961;-73
2022/12/26 11:50:19;;;;;;;22.35;3.42;;;;;;;;;;4934243;28;20035;-74
2022/12/26 11:52:54;;;;;;;22.20;3.25;;;;;;;;;;4900658;28;20031;-73
2022/12/26 11:55:29;;;;;;;26.42;3.47;;;;;;;;;;4929804;28;20086;-72
2022/12/26 11:58:13;;;;;;;14.43;3.30;;;;;;;;;;4927040;29;20113;-73
2022/12/26 12:00:42;;;;;;;18.80;3.85;;;;;;;;;;4930646;28;20498;-74
2022/12/26 12:03:28;;;;;;;21.58;3.03;;;;;;;;;;4929644;29;20039;-73
2022/12/26 12:05:56;;;;;;;17.08;2.92;;;;;;;;;;4928838;29;20057;-73
2022/12/26 12:08:24;;;;;;;27.63;4.15;;;;;;;;;;4927800;28;20054;-73
2022/12/26 12:11:04;;;;;;;22.70;3.15;;;;;;;;;;4910097;29;20096;-74
2022/12/26 12:13:34;;;;;;;20.65;3.25;;;;;;;;;;4927887;29;20786;-74
2022/12/26 12:16:09;;;;;;;21.00;3.25;;;;;;;;;;4928659;28;20082;-74
2022/12/26 12:18:38;;;;;;;23.17;3.10;;;;;;;;;;4928342;28;20027;-73
2022/12/26 12:21:03;;;;;;;19.27;2.63;;;;;;;;;;4927964;28;20446;-74
2022/12/26 12:23:31;;;;;;;26.45;3.58;;;;;;;;;;4927956;28;20031;-76
2022/12/26 12:26:13;;;;;;;23.70;3.47;;;;;;;;;;4926665;29;20035;-75
2022/12/26 12:28:47;;;;;;;25.27;4.78;;;;;;;;;;4930134;28;20041;-74
2022/12/26 12:31:12;;;;;;;33.42;4.05;;;;;;;;;;4926883;28;20035;-73
2022/12/26 12:33:50;;;;;;;16.90;3.47;;;;;;;;;;4911193;28;20031;-73
2022/12/26 12:36:17;;;;;;;30.75;3.72;;;;;;;;;;4927170;29;20507;-73
2022/12/26 12:38:57;;;;;;;15.55;3.10;;;;;;;;;;4926816;29;20042;-74
2022/12/26 12:41:31;;;;;;;22.55;3.33;;;;;;;;;;4929705;29;20031;-73
2022/12/26 12:43:56;;;;;;;23.52;3.25;;;;;;;;;;4927664;29;20198;-75
2022/12/26 12:46:27;;;;;;;20.63;3.33;;;;;;;;;;4933874;28;20418;-74
2022/12/26 12:48:58;;;;;;;24.67;3.47;;;;;;;;;;5016602;28;20132;-73
2022/12/26 12:51:39;;;;;;;16.30;2.43;;;;;;;;;;4935857;28;20039;-74
2022/12/26 12:54:04;;;;;;;19.98;3.05;;;;;;;;;;5015977;28;20469;-72
2022/12/26 12:56:30;;;;;;;23.10;3.50;;;;;;;;;;4937242;28;20027;-72
2022/12/26 12:59:21;;;;;;;19.00;2.55;;;;;;;;;;5001939;28;20244;-75
2022/12/26 13:01:50;;;;;;;22.33;3.08;;;;;;;;;;4947902;28;20062;-73
2022/12/26 13:04:19;;;;;;;25.55;3.78;;;;;;;;;;4935239;28;20027;-74
2022/12/26 13:06:54;;;;;;;23.70;3.42;;;;;;;;;;4933484;28;20301;-74
2022/12/26 13:09:24;;;;;;;23.17;3.10;;;;;;;;;;5014542;28;20145;-75
2022/12/26 13:11:49;;;;;;;28.58;3.83;;;;;;;;;;4935484;28;20046;-74
2022/12/26 13:14:25;;;;;;;20.50;2.92;;;;;;;;;;5014340;28;20035;-74
2022/12/26 13:17:02;;;;;;;26.27;3.53;;;;;;;;;;4932782;28;20028;-73
2022/12/26 13:19:45;;;;;;;24.50;3.65;;;;;;;;;;5016978;28;20118;-74
2022/12/26 13:22:13;;;;;;;21.63;3.53;;;;;;;;;;5000399;28;20031;-74
2022/12/26 13:24:42;;;;;;;19.80;2.58;;;;;;;;;;4936516;28;20027;-72
2022/12/26 13:27:19;;;;;;;19.73;2.72;;;;;;;;;;4934451;28;20035;-73
2022/12/26 13:29:46;;;;;;;23.27;3.00;;;;;;;;;;5011855;28;20043;-72
2022/12/26 13:32:21;;;;;;;28.10;3.97;;;;;;;;;;4938488;28;20462;-74
2022/12/26 13:34:47;;;;;;;20.67;2.90;;;;;;;;;;4939197;28;20035;-72
2022/12/26 13:37:31;;;;;;;20.23;3.63;;;;;;;;;;4933383;28;20216;-73
2022/12/26 13:40:02;;;;;;;20.77;2.65;;;;;;;;;;4914784;28;20035;-74
2022/12/26 13:45:41;;;;;;;20.77;3.10;;;;;;;;;;4954069;28;20122;-73
2022/12/26 13:48:15;;;;;;;23.35;3.58;;;;;;;;;;4930863;28;20393;-72
2022/12/26 13:50:52;;;;;;;19.10;3.03;;;;;;;;;;4932500;28;20051;-73
2022/12/26 13:53:36;;;;;;;22.75;2.85;;;;;;;;;;4926939;29;20039;-73
2022/12/26 13:56:02;;;;;;;23.40;3.25;;;;;;;;;;4911228;29;20038;-73
2022/12/26 13:58:31;;;;;;;23.92;2.67;;;;;;;;;;4917330;29;20035;-76
2022/12/26 14:01:02;;;;;;;30.48;3.88;;;;;;;;;;4915373;28;20579;-74
2022/12/26 14:03:39;;;;;;;23.30;2.97;;;;;;;;;;4913981;29;20118;-73
2022/12/26 14:06:07;;;;;;;27.08;3.92;;;;;;;;;;4911497;29;20079;-74
2022/12/26 14:08:50;;;;;;;21.80;3.90;;;;;;;;;;4910124;29;20146;-73
2022/12/26 14:11:21;;;;;;;25.30;3.33;;;;;;;;;;4911096;28;20051;-73
2022/12/26 14:14:00;;;;;;;21.55;3.30;;;;;;;;;;4934060;28;20040;-72
2022/12/26 14:16:32;;;;;;;29.35;3.58;;;;;;;;;;4934230;28;20070;-72
2022/12/26 14:18:57;;;;;;;;;;;;;;;;;;4913750;28;20394;-73
2022/12/26 14:21:41;;;;;;;17.70;3.35;;;;;;;;;;4915933;28;19910;-73
2022/12/26 14:24:12;;;;;;;36.28;4.47;;;;;;;;;;4932217;28;20031;-73
2022/12/26 14:26:49;;;;;;;24.42;3.45;;;;;;;;;;4935191;28;20042;-76
2022/12/26 14:29:35;;;;;;;23.73;3.05;;;;;;;;;;4936348;28;20695;-73
2022/12/26 14:32:04;;;;;;;33.70;3.92;;;;;;;;;;4918856;28;20039;-73
2022/12/26 14:34:54;;;;;;;33.88;4.47;;;;;;;;;;4935863;28;20474;-72
2022/12/26 14:37:34;;;;;;;32.97;5.65;;;;;;;;;;4933718;28;20038;-73
2022/12/26 14:40:18;;;;;;;27.83;3.83;;;;;;;;;;4933653;29;20110;-74
2022/12/26 14:43:12;;;;;;;22.00;3.65;;;;;;;;;;4931879;29;20111;-73
2022/12/26 14:45:40;;;;;;;33.00;4.55;;;;;;;;;;4929548;28;20659;-73
2022/12/26 14:48:14;;;;;;;29.90;4.18;;;;;;;;;;4930953;28;20039;-72
2022/12/26 14:50:46;;;;;;;21.52;3.67;;;;;;;;;;4934545;29;20057;-73
2022/12/26 14:53:23;;;;;;;27.20;3.55;;;;;;;;;;4933104;29;20585;-72
2022/12/26 14:56:02;;;;;;;32.63;3.70;;;;;;;;;;4917769;28;20058;-74
2022/12/26 14:58:30;;;;;;;31.15;4.22;;;;;;;;;;4917576;28;20079;-74
2022/12/26 15:01:17;;;;;;;29.65;3.88;;;;;;;;;;4915723;29;20042;-74
2022/12/26 15:03:58;;;;;;;19.65;3.15;;;;;;;;;;4928391;28;20050;-73
2022/12/26 15:06:43;;;;;;;34.03;4.05;;;;;;;;;;4919865;28;20313;-74
2022/12/26 15:09:17;;;;;;;31.85;4.25;;;;;;;;;;4935146;29;20131;-73
2022/12/26 15:11:42;;;;;;;34.45;5.00;;;;;;;;;;4952930;28;20129;-73
2022/12/26 15:14:20;;;;;;;26.52;3.75;;;;;;;;;;4953324;28;20042;-73
2022/12/26 15:17:04;;;;;;;25.65;4.18;;;;;;;;;;4954415;28;20197;-73
2022/12/26 15:19:55;;;;;;;23.58;4.13;;;;;;;;;;4953671;28;20038;-73
2022/12/26 15:22:43;;;;;;;31.45;4.32;;;;;;;;;;4954799;28;20476;-73
2022/12/26 15:25:08;;;;;;;29.02;3.72;;;;;;;;;;4960847;28;20030;-73
2022/12/26 15:27:52;;;;;;;36.13;4.22;;;;;;;;;;4955042;28;20030;-72
2022/12/26 15:30:18;;;;;;;34.35;5.15;;;;;;;;;;4951793;28;20500;-73
2022/12/26 15:33:14;;;;;;;29.30;4.38;;;;;;;;;;4949284;28;20088;-73
2022/12/26 15:35:52;;;;;;;35.70;4.85;;;;;;;;;;4948046;28;20124;-73
2022/12/26 15:38:22;;;;;;;24.63;4.03;;;;;;;;;;4938007;28;20045;-74
2022/12/26 15:40:53;;;;;;;28.95;3.97;;;;;;;;;;4934762;28;20069;-72
2022/12/26 15:43:33;;;;;;;20.63;3.63;;;;;;;;;;4997351;28;20050;-73
2022/12/26 15:46:17;;;;;;;27.67;3.13;;;;;;;;;;4929678;28;20423;-74
2022/12/26 15:49:03;;;;;;;31.75;3.78;;;;;;;;;;4948022;28;20065;-74
2022/12/26 15:51:32;;;;;;;29.40;3.80;;;;;;;;;;4938538;28;20122;-72
2022/12/26 15:53:57;;;;;;;27.23;3.30;;;;;;;;;;4949259;28;20161;-72
2022/12/26 15:56:42;;;;;;;20.20;3.47;;;;;;;;;;4935550;28;20035;-74
2022/12/26 15:59:29;;;;;;;23.58;3.45;;;;;;;;;;4928495;28;20455;-73
2022/12/26 16:01:57;;;;;;;17.35;3.15;;;;;;;;;;4936523;28;20054;-73
2022/12/26 16:04:31;;;;;;;19.10;2.53;;;;;;;;;;4938922;28;20042;-74
2022/12/26 16:07:15;;;;;;;22.52;3.47;;;;;;;;;;4934667;28;20536;-74
2022/12/26 16:09:41;;;;;;;26.05;3.70;;;;;;;;;;4934324;28;20225;-73
2022/12/26 16:12:18;;;;;;;19.90;3.30;;;;;;;;;;5010983;28;20262;-73
2022/12/26 16:14:44;;;;;;;25.58;3.80;;;;;;;;;;5012762;28;20037;-73
2022/12/26 16:17:12;;;;;;;22.35;3.78;;;;;;;;;;5018857;28;20030;-72
2022/12/26 16:19:47;;;;;;;17.10;3.70;;;;;;;;;;5011515;28;20067;-72
2022/12/26 16:22:48;;;;;;;21.55;2.97;;;;;;;;;;5013311;28;20058;-73
2022/12/26 16:25:21;;;;;;;20.08;3.80;;;;;;;;;;5007184;28;20562;-73
2022/12/26 16:27:48;;;;;;;19.23;2.95;;;;;;;;;;5011713;28;20227;-73
2022/12/26 16:30:15;;;;;;;26.02;3.47;;;;;;;;;;5017269;28;20492;-73
2022/12/26 16:32:41;;;;;;;37.88;3.78;;;;;;;;;;4995238;28;20026;-74
2022/12/26 16:35:18;;;;;;;29.08;3.20;;;;;;;;;;5031310;28;20038;-73
2022/12/26 16:37:44;;;;;;;21.77;3.45;;;;;;;;;;5009290;28;20029;-72
2022/12/26 16:40:18;;;;;;;22.15;3.08;;;;;;;;;;5030272;28;20087;-73
2022/12/26 16:42:56;;;;;;;17.33;2.67;;;;;;;;;;5016695;28;20508;-73
2022/12/26 16:45:22;;;;;;;17.50;2.60;;;;;;;;;;5032131;28;20108;-72
2022/12/26 16:47:48;;;;;;;19.95;2.40;;;;;;;;;;5032446;28;20503;-73
2022/12/26 16:50:15;;;;;;;18.08;2.95;;;;;;;;;;5025258;28;20060;-72
2022/12/26 16:52:43;;;;;;;16.98;4.22;;;;;;;;;;5026916;28;20064;-73
2022/12/26 16:55:21;;;;;;;17.23;3.60;;;;;;;;;;5002214;28;20033;-73